sensor_id;sensor_type;location;lat;lon;timestamp;P1;durP1;ratioP1;P2;durP2;ratioP2
23743;SDS011;12052;53.478;10.182;2022-07-23T00:01:15;3.28;;;1.40;;
23743;SDS011;12052;53.478;10.182;2022-07-23T00:03:41;9.93;;;1.70;;
23743;SDS011;12052;53.478;10.182;2022-07-23T00:06:06;1.67;;;1.10;;
23743;SDS011;12052;53.478;10.182;2022-07-23T00:08:32;4.05;;;1.40;;
23743;SDS011;12052;53.478;10.182;2022-07-23T00:10:58;4.43;;;1.92;;
23743;SDS011;12052;53.478;10.182;2022-07-23T00:13:23;1.75;;;1.40;;
23743;SDS011;12052;53.478;10.182;2022-07-23T00:15:49;3.40;;;1.17;;
23743;SDS011;12052;53.478;10.182;2022-07-23T00:18:14;4.45;;;1.67;;
23743;SDS011;12052;53.478;10.182;2022-07-23T00:20:40;5.68;;;1.70;;
23743;SDS011;12052;53.478;10.182;2022-07-23T00:23:07;3.55;;;1.20;;
23743;SDS011;12052;53.478;10.182;2022-07-23T00:25:32;5.35;;;1.52;;
23743;SDS011;12052;53.478;10.182;2022-07-23T00:27:58;2.50;;;1.10;;
23743;SDS011;12052;53.478;10.182;2022-07-23T00:30:24;1.70;;;1.40;;
23743;SDS011;12052;53.478;10.182;2022-07-23T00:32:51;5.43;;;1.48;;
23743;SDS011;12052;53.478;10.182;2022-07-23T00:35:21;3.60;;;1.30;;
23743;SDS011;12052;53.478;10.182;2022-07-23T00:37:48;5.30;;;1.70;;
23743;SDS011;12052;53.478;10.182;2022-07-23T00:40:14;3.63;;;1.45;;
23743;SDS011;12052;53.478;10.182;2022-07-23T00:42:40;4.18;;;1.70;;
23743;SDS011;12052;53.478;10.182;2022-07-23T00:45:06;3.13;;;1.50;;
23743;SDS011;12052;53.478;10.182;2022-07-23T00:47:33;11.52;;;1.58;;
23743;SDS011;12052;53.478;10.182;2022-07-23T00:49:58;7.95;;;1.45;;
23743;SDS011;12052;53.478;10.182;2022-07-23T00:52:24;5.75;;;1.17;;
23743;SDS011;12052;53.478;10.182;2022-07-23T00:54:50;3.55;;;1.02;;
23743;SDS011;12052;53.478;10.182;2022-07-23T00:57:16;5.65;;;1.35;;
23743;SDS011;12052;53.478;10.182;2022-07-23T00:59:43;9.45;;;1.48;;
23743;SDS011;12052;53.478;10.182;2022-07-23T01:02:09;2.75;;;1.27;;
23743;SDS011;12052;53.478;10.182;2022-07-23T01:04:34;2.90;;;1.20;;
23743;SDS011;12052;53.478;10.182;2022-07-23T01:07:00;3.67;;;1.40;;
23743;SDS011;12052;53.478;10.182;2022-07-23T01:09:26;4.20;;;1.40;;
23743;SDS011;12052;53.478;10.182;2022-07-23T01:11:52;2.47;;;1.20;;
23743;SDS011;12052;53.478;10.182;2022-07-23T01:14:20;5.05;;;1.30;;
23743;SDS011;12052;53.478;10.182;2022-07-23T01:16:46;3.38;;;1.40;;
23743;SDS011;12052;53.478;10.182;2022-07-23T01:19:14;3.78;;;1.33;;
23743;SDS011;12052;53.478;10.182;2022-07-23T01:21:42;2.45;;;1.20;;
23743;SDS011;12052;53.478;10.182;2022-07-23T01:24:09;3.60;;;1.20;;
23743;SDS011;12052;53.478;10.182;2022-07-23T01:26:36;2.83;;;1.48;;
23743;SDS011;12052;53.478;10.182;2022-07-23T01:29:02;2.53;;;1.00;;
23743;SDS011;12052;53.478;10.182;2022-07-23T01:31:29;10.07;;;1.65;;
23743;SDS011;12052;53.478;10.182;2022-07-23T01:33:55;2.03;;;1.20;;
23743;SDS011;12052;53.478;10.182;2022-07-23T01:36:20;6.35;;;1.38;;
23743;SDS011;12052;53.478;10.182;2022-07-23T01:38:46;4.57;;;1.20;;
23743;SDS011;12052;53.478;10.182;2022-07-23T01:41:12;2.92;;;1.10;;
23743;SDS011;12052;53.478;10.182;2022-07-23T01:43:38;2.05;;;1.10;;
23743;SDS011;12052;53.478;10.182;2022-07-23T01:46:03;3.58;;;1.30;;
23743;SDS011;12052;53.478;10.182;2022-07-23T01:48:29;2.97;;;1.20;;
23743;SDS011;12052;53.478;10.182;2022-07-23T01:50:54;5.88;;;1.30;;
23743;SDS011;12052;53.478;10.182;2022-07-23T01:53:20;3.95;;;1.33;;
23743;SDS011;12052;53.478;10.182;2022-07-23T01:55:46;2.22;;;1.17;;
23743;SDS011;12052;53.478;10.182;2022-07-23T01:58:12;3.58;;;1.35;;
23743;SDS011;12052;53.478;10.182;2022-07-23T02:00:37;2.53;;;1.30;;
23743;SDS011;12052;53.478;10.182;2022-07-23T02:03:03;4.63;;;1.23;;
23743;SDS011;12052;53.478;10.182;2022-07-23T02:05:29;3.10;;;1.23;;
23743;SDS011;12052;53.478;10.182;2022-07-23T02:07:56;9.07;;;1.40;;
23743;SDS011;12052;53.478;10.182;2022-07-23T02:10:23;2.28;;;1.20;;
23743;SDS011;12052;53.478;10.182;2022-07-23T02:12:49;3.38;;;1.27;;
23743;SDS011;12052;53.478;10.182;2022-07-23T02:15:15;1.55;;;1.05;;
23743;SDS011;12052;53.478;10.182;2022-07-23T02:17:41;3.67;;;1.40;;
23743;SDS011;12052;53.478;10.182;2022-07-23T02:20:07;3.60;;;1.02;;
23743;SDS011;12052;53.478;10.182;2022-07-23T02:22:34;3.78;;;1.30;;
23743;SDS011;12052;53.478;10.182;2022-07-23T02:25:00;8.05;;;1.58;;
23743;SDS011;12052;53.478;10.182;2022-07-23T02:27:27;2.20;;;1.15;;
23743;SDS011;12052;53.478;10.182;2022-07-23T02:29:53;1.13;;;1.05;;
23743;SDS011;12052;53.478;10.182;2022-07-23T02:32:18;4.47;;;1.20;;
23743;SDS011;12052;53.478;10.182;2022-07-23T02:34:46;3.75;;;1.30;;
23743;SDS011;12052;53.478;10.182;2022-07-23T02:37:12;1.98;;;1.20;;
23743;SDS011;12052;53.478;10.182;2022-07-23T02:39:38;1.75;;;1.10;;
23743;SDS011;12052;53.478;10.182;2022-07-23T02:42:04;3.95;;;1.60;;
23743;SDS011;12052;53.478;10.182;2022-07-23T02:44:29;3.67;;;1.50;;
23743;SDS011;12052;53.478;10.182;2022-07-23T02:46:55;1.75;;;1.27;;
23743;SDS011;12052;53.478;10.182;2022-07-23T02:49:21;2.50;;;1.13;;
23743;SDS011;12052;53.478;10.182;2022-07-23T02:51:46;2.25;;;1.20;;
23743;SDS011;12052;53.478;10.182;2022-07-23T02:54:12;2.65;;;1.02;;
23743;SDS011;12052;53.478;10.182;2022-07-23T02:56:37;3.67;;;1.10;;
23743;SDS011;12052;53.478;10.182;2022-07-23T02:59:03;3.53;;;1.40;;
23743;SDS011;12052;53.478;10.182;2022-07-23T03:01:29;3.38;;;1.17;;
23743;SDS011;12052;53.478;10.182;2022-07-23T03:03:54;4.82;;;1.23;;
23743;SDS011;12052;53.478;10.182;2022-07-23T03:06:20;2.60;;;1.30;;
23743;SDS011;12052;53.478;10.182;2022-07-23T03:08:45;4.43;;;1.15;;
23743;SDS011;12052;53.478;10.182;2022-07-23T03:11:11;2.60;;;1.42;;
23743;SDS011;12052;53.478;10.182;2022-07-23T03:13:37;1.67;;;1.05;;
23743;SDS011;12052;53.478;10.182;2022-07-23T03:16:03;4.00;;;1.30;;
23743;SDS011;12052;53.478;10.182;2022-07-23T03:18:29;2.50;;;1.15;;
23743;SDS011;12052;53.478;10.182;2022-07-23T03:20:55;4.32;;;1.50;;
23743;SDS011;12052;53.478;10.182;2022-07-23T03:23:21;6.32;;;1.63;;
23743;SDS011;12052;53.478;10.182;2022-07-23T03:25:46;6.15;;;1.80;;
23743;SDS011;12052;53.478;10.182;2022-07-23T03:28:15;9.00;;;1.58;;
23743;SDS011;12052;53.478;10.182;2022-07-23T03:30:45;5.28;;;1.40;;
23743;SDS011;12052;53.478;10.182;2022-07-23T03:33:17;12.38;;;1.55;;
23743;SDS011;12052;53.478;10.182;2022-07-23T03:35:44;5.15;;;1.42;;
23743;SDS011;12052;53.478;10.182;2022-07-23T03:38:11;2.60;;;1.40;;
23743;SDS011;12052;53.478;10.182;2022-07-23T03:40:37;4.80;;;1.65;;
23743;SDS011;12052;53.478;10.182;2022-07-23T03:43:03;3.42;;;1.52;;
23743;SDS011;12052;53.478;10.182;2022-07-23T03:45:29;2.53;;;1.40;;
23743;SDS011;12052;53.478;10.182;2022-07-23T03:47:54;2.38;;;1.48;;
23743;SDS011;12052;53.478;10.182;2022-07-23T03:50:20;4.68;;;1.85;;
23743;SDS011;12052;53.478;10.182;2022-07-23T03:52:46;2.03;;;1.50;;
23743;SDS011;12052;53.478;10.182;2022-07-23T03:55:11;2.13;;;1.40;;
23743;SDS011;12052;53.478;10.182;2022-07-23T03:57:37;3.33;;;1.15;;
23743;SDS011;12052;53.478;10.182;2022-07-23T04:00:03;4.47;;;1.60;;
23743;SDS011;12052;53.478;10.182;2022-07-23T04:02:31;4.18;;;1.67;;
23743;SDS011;12052;53.478;10.182;2022-07-23T04:04:56;2.53;;;1.55;;
23743;SDS011;12052;53.478;10.182;2022-07-23T04:07:22;2.13;;;1.50;;
23743;SDS011;12052;53.478;10.182;2022-07-23T04:09:48;5.28;;;1.55;;
23743;SDS011;12052;53.478;10.182;2022-07-23T04:12:13;3.60;;;2.00;;
23743;SDS011;12052;53.478;10.182;2022-07-23T04:14:39;4.72;;;2.10;;
23743;SDS011;12052;53.478;10.182;2022-07-23T04:17:05;7.45;;;1.90;;
23743;SDS011;12052;53.478;10.182;2022-07-23T04:19:30;3.90;;;1.67;;
23743;SDS011;12052;53.478;10.182;2022-07-23T04:21:56;3.63;;;1.77;;
23743;SDS011;12052;53.478;10.182;2022-07-23T04:24:22;4.13;;;2.10;;
23743;SDS011;12052;53.478;10.182;2022-07-23T04:26:48;5.80;;;2.00;;
23743;SDS011;12052;53.478;10.182;2022-07-23T04:29:13;9.10;;;2.00;;
23743;SDS011;12052;53.478;10.182;2022-07-23T04:31:39;9.23;;;2.00;;
23743;SDS011;12052;53.478;10.182;2022-07-23T04:34:04;4.03;;;1.70;;
23743;SDS011;12052;53.478;10.182;2022-07-23T04:36:30;3.83;;;2.08;;
23743;SDS011;12052;53.478;10.182;2022-07-23T04:38:56;7.75;;;2.00;;
23743;SDS011;12052;53.478;10.182;2022-07-23T04:41:21;5.28;;;2.03;;
23743;SDS011;12052;53.478;10.182;2022-07-23T04:43:47;7.38;;;2.47;;
23743;SDS011;12052;53.478;10.182;2022-07-23T04:46:12;5.53;;;1.80;;
23743;SDS011;12052;53.478;10.182;2022-07-23T04:48:38;1.98;;;1.65;;
23743;SDS011;12052;53.478;10.182;2022-07-23T04:51:04;4.68;;;2.28;;
23743;SDS011;12052;53.478;10.182;2022-07-23T04:53:30;2.92;;;2.33;;
23743;SDS011;12052;53.478;10.182;2022-07-23T04:55:56;8.45;;;2.50;;
23743;SDS011;12052;53.478;10.182;2022-07-23T04:58:21;8.52;;;2.17;;
23743;SDS011;12052;53.478;10.182;2022-07-23T05:00:47;6.57;;;2.30;;
23743;SDS011;12052;53.478;10.182;2022-07-23T05:03:12;4.25;;;2.50;;
23743;SDS011;12052;53.478;10.182;2022-07-23T05:05:38;4.30;;;2.42;;
23743;SDS011;12052;53.478;10.182;2022-07-23T05:08:04;5.15;;;2.53;;
23743;SDS011;12052;53.478;10.182;2022-07-23T05:10:30;4.32;;;2.70;;
23743;SDS011;12052;53.478;10.182;2022-07-23T05:12:56;5.95;;;2.63;;
23743;SDS011;12052;53.478;10.182;2022-07-23T05:15:22;9.23;;;2.45;;
23743;SDS011;12052;53.478;10.182;2022-07-23T05:17:47;5.05;;;3.22;;
23743;SDS011;12052;53.478;10.182;2022-07-23T05:20:13;13.05;;;3.22;;
23743;SDS011;12052;53.478;10.182;2022-07-23T05:22:39;12.27;;;3.72;;
23743;SDS011;12052;53.478;10.182;2022-07-23T05:25:05;6.60;;;2.97;;
23743;SDS011;12052;53.478;10.182;2022-07-23T05:27:31;5.70;;;2.75;;
23743;SDS011;12052;53.478;10.182;2022-07-23T05:29:57;10.30;;;3.08;;
23743;SDS011;12052;53.478;10.182;2022-07-23T05:32:22;7.60;;;2.70;;
23743;SDS011;12052;53.478;10.182;2022-07-23T05:34:48;8.55;;;2.80;;
23743;SDS011;12052;53.478;10.182;2022-07-23T05:37:14;7.30;;;2.63;;
23743;SDS011;12052;53.478;10.182;2022-07-23T05:39:40;3.60;;;2.70;;
23743;SDS011;12052;53.478;10.182;2022-07-23T05:42:05;6.22;;;2.90;;
23743;SDS011;12052;53.478;10.182;2022-07-23T05:44:31;9.05;;;3.00;;
23743;SDS011;12052;53.478;10.182;2022-07-23T05:46:56;12.68;;;2.67;;
23743;SDS011;12052;53.478;10.182;2022-07-23T05:49:22;7.40;;;3.15;;
23743;SDS011;12052;53.478;10.182;2022-07-23T05:51:47;5.35;;;2.58;;
23743;SDS011;12052;53.478;10.182;2022-07-23T05:54:14;7.22;;;2.40;;
23743;SDS011;12052;53.478;10.182;2022-07-23T05:56:39;5.93;;;2.53;;
23743;SDS011;12052;53.478;10.182;2022-07-23T05:59:05;6.25;;;2.75;;
23743;SDS011;12052;53.478;10.182;2022-07-23T06:01:31;10.52;;;2.83;;
23743;SDS011;12052;53.478;10.182;2022-07-23T06:03:56;8.80;;;3.10;;
23743;SDS011;12052;53.478;10.182;2022-07-23T06:06:22;5.22;;;2.60;;
23743;SDS011;12052;53.478;10.182;2022-07-23T06:08:47;4.35;;;2.80;;
23743;SDS011;12052;53.478;10.182;2022-07-23T06:11:13;5.30;;;2.65;;
23743;SDS011;12052;53.478;10.182;2022-07-23T06:13:39;4.65;;;2.80;;
23743;SDS011;12052;53.478;10.182;2022-07-23T06:16:04;5.05;;;2.78;;
23743;SDS011;12052;53.478;10.182;2022-07-23T06:18:30;5.20;;;2.40;;
23743;SDS011;12052;53.478;10.182;2022-07-23T06:20:55;7.78;;;3.10;;
23743;SDS011;12052;53.478;10.182;2022-07-23T06:23:21;6.43;;;2.72;;
23743;SDS011;12052;53.478;10.182;2022-07-23T06:25:47;10.27;;;2.47;;
23743;SDS011;12052;53.478;10.182;2022-07-23T06:28:12;5.65;;;2.20;;
23743;SDS011;12052;53.478;10.182;2022-07-23T06:30:38;8.23;;;2.35;;
23743;SDS011;12052;53.478;10.182;2022-07-23T06:33:03;6.70;;;1.90;;
23743;SDS011;12052;53.478;10.182;2022-07-23T06:35:29;7.13;;;2.20;;
23743;SDS011;12052;53.478;10.182;2022-07-23T06:37:54;7.00;;;1.73;;
23743;SDS011;12052;53.478;10.182;2022-07-23T06:40:20;2.35;;;1.50;;
23743;SDS011;12052;53.478;10.182;2022-07-23T06:42:46;4.03;;;1.80;;
23743;SDS011;12052;53.478;10.182;2022-07-23T06:45:11;2.83;;;1.77;;
23743;SDS011;12052;53.478;10.182;2022-07-23T06:47:37;7.43;;;1.55;;
23743;SDS011;12052;53.478;10.182;2022-07-23T06:50:03;5.68;;;1.75;;
23743;SDS011;12052;53.478;10.182;2022-07-23T06:52:30;3.28;;;1.73;;
23743;SDS011;12052;53.478;10.182;2022-07-23T06:54:55;5.10;;;1.70;;
23743;SDS011;12052;53.478;10.182;2022-07-23T06:57:21;3.97;;;1.73;;
23743;SDS011;12052;53.478;10.182;2022-07-23T06:59:46;2.80;;;2.00;;
23743;SDS011;12052;53.478;10.182;2022-07-23T07:02:12;4.80;;;1.73;;
23743;SDS011;12052;53.478;10.182;2022-07-23T07:04:38;4.03;;;1.83;;
23743;SDS011;12052;53.478;10.182;2022-07-23T07:07:04;1.60;;;1.30;;
23743;SDS011;12052;53.478;10.182;2022-07-23T07:09:29;3.70;;;1.40;;
23743;SDS011;12052;53.478;10.182;2022-07-23T07:11:55;1.88;;;1.30;;
23743;SDS011;12052;53.478;10.182;2022-07-23T07:14:21;6.10;;;1.60;;
23743;SDS011;12052;53.478;10.182;2022-07-23T07:16:47;5.47;;;1.40;;
23743;SDS011;12052;53.478;10.182;2022-07-23T07:19:12;5.07;;;1.55;;
23743;SDS011;12052;53.478;10.182;2022-07-23T07:21:38;2.47;;;1.75;;
23743;SDS011;12052;53.478;10.182;2022-07-23T07:24:04;2.65;;;1.60;;
23743;SDS011;12052;53.478;10.182;2022-07-23T07:26:30;4.20;;;1.25;;
23743;SDS011;12052;53.478;10.182;2022-07-23T07:28:56;3.08;;;1.17;;
23743;SDS011;12052;53.478;10.182;2022-07-23T07:31:22;2.92;;;1.55;;
23743;SDS011;12052;53.478;10.182;2022-07-23T07:33:47;2.95;;;1.30;;
23743;SDS011;12052;53.478;10.182;2022-07-23T07:36:13;1.20;;;1.10;;
23743;SDS011;12052;53.478;10.182;2022-07-23T07:38:39;2.05;;;1.13;;
23743;SDS011;12052;53.478;10.182;2022-07-23T07:41:04;1.40;;;1.10;;
23743;SDS011;12052;53.478;10.182;2022-07-23T07:43:30;1.90;;;1.10;;
23743;SDS011;12052;53.478;10.182;2022-07-23T07:45:55;2.38;;;0.80;;
23743;SDS011;12052;53.478;10.182;2022-07-23T07:48:21;2.35;;;0.90;;
23743;SDS011;12052;53.478;10.182;2022-07-23T07:50:47;2.38;;;0.90;;
23743;SDS011;12052;53.478;10.182;2022-07-23T07:53:12;5.93;;;1.30;;
23743;SDS011;12052;53.478;10.182;2022-07-23T07:55:38;2.30;;;0.88;;
23743;SDS011;12052;53.478;10.182;2022-07-23T07:58:03;1.15;;;0.75;;
23743;SDS011;12052;53.478;10.182;2022-07-23T08:00:29;1.58;;;0.60;;
23743;SDS011;12052;53.478;10.182;2022-07-23T08:02:55;2.25;;;0.88;;
23743;SDS011;12052;53.478;10.182;2022-07-23T08:05:21;3.13;;;0.88;;
23743;SDS011;12052;53.478;10.182;2022-07-23T08:07:51;1.48;;;0.90;;
23743;SDS011;12052;53.478;10.182;2022-07-23T08:10:16;1.08;;;0.80;;
23743;SDS011;12052;53.478;10.182;2022-07-23T08:12:44;1.38;;;0.82;;
23743;SDS011;12052;53.478;10.182;2022-07-23T08:15:12;2.88;;;1.05;;
23743;SDS011;12052;53.478;10.182;2022-07-23T08:17:39;3.70;;;1.17;;
23743;SDS011;12052;53.478;10.182;2022-07-23T08:20:05;2.35;;;1.08;;
23743;SDS011;12052;53.478;10.182;2022-07-23T08:25:21;1.60;;;1.10;;
23743;SDS011;12052;53.478;10.182;2022-07-23T08:27:49;1.15;;;0.88;;
23743;SDS011;12052;53.478;10.182;2022-07-23T08:30:15;3.25;;;1.00;;
23743;SDS011;12052;53.478;10.182;2022-07-23T08:32:52;2.10;;;1.08;;
23743;SDS011;12052;53.478;10.182;2022-07-23T08:35:32;1.98;;;0.90;;
23743;SDS011;12052;53.478;10.182;2022-07-23T08:37:59;2.90;;;0.80;;
23743;SDS011;12052;53.478;10.182;2022-07-23T08:40:27;1.67;;;0.82;;
23743;SDS011;12052;53.478;10.182;2022-07-23T08:42:55;1.40;;;0.98;;
23743;SDS011;12052;53.478;10.182;2022-07-23T08:45:21;3.10;;;0.80;;
23743;SDS011;12052;53.478;10.182;2022-07-23T08:47:49;1.30;;;0.98;;
23743;SDS011;12052;53.478;10.182;2022-07-23T08:50:15;1.33;;;0.77;;
23743;SDS011;12052;53.478;10.182;2022-07-23T08:52:41;1.30;;;0.77;;
23743;SDS011;12052;53.478;10.182;2022-07-23T08:55:07;1.60;;;0.70;;
23743;SDS011;12052;53.478;10.182;2022-07-23T08:57:33;0.90;;;0.70;;
23743;SDS011;12052;53.478;10.182;2022-07-23T08:59:59;0.60;;;0.43;;
23743;SDS011;12052;53.478;10.182;2022-07-23T09:02:25;1.58;;;0.50;;
23743;SDS011;12052;53.478;10.182;2022-07-23T09:04:50;1.90;;;0.50;;
23743;SDS011;12052;53.478;10.182;2022-07-23T09:07:16;3.40;;;0.63;;
23743;SDS011;12052;53.478;10.182;2022-07-23T09:09:41;0.55;;;0.50;;
23743;SDS011;12052;53.478;10.182;2022-07-23T09:12:08;3.80;;;0.60;;
23743;SDS011;12052;53.478;10.182;2022-07-23T09:14:35;1.00;;;0.77;;
23743;SDS011;12052;53.478;10.182;2022-07-23T09:17:10;5.80;;;0.70;;
23743;SDS011;12052;53.478;10.182;2022-07-23T09:19:36;2.05;;;0.80;;
23743;SDS011;12052;53.478;10.182;2022-07-23T09:22:18;1.05;;;0.50;;
23743;SDS011;12052;53.478;10.182;2022-07-23T09:27:47;1.95;;;0.90;;
23743;SDS011;12052;53.478;10.182;2022-07-23T09:30:14;1.77;;;0.88;;
23743;SDS011;12052;53.478;10.182;2022-07-23T09:32:41;1.02;;;0.50;;
23743;SDS011;12052;53.478;10.182;2022-07-23T09:35:07;1.80;;;0.75;;
23743;SDS011;12052;53.478;10.182;2022-07-23T09:37:33;0.70;;;0.68;;
23743;SDS011;12052;53.478;10.182;2022-07-23T09:40:06;1.60;;;0.63;;
23743;SDS011;12052;53.478;10.182;2022-07-23T09:42:36;1.67;;;0.50;;
23743;SDS011;12052;53.478;10.182;2022-07-23T09:45:02;1.85;;;0.80;;
23743;SDS011;12052;53.478;10.182;2022-07-23T09:47:29;2.13;;;0.65;;
23743;SDS011;12052;53.478;10.182;2022-07-23T09:50:00;1.30;;;0.60;;
23743;SDS011;12052;53.478;10.182;2022-07-23T09:52:43;5.13;;;1.02;;
23743;SDS011;12052;53.478;10.182;2022-07-23T09:55:13;1.90;;;0.60;;
23743;SDS011;12052;53.478;10.182;2022-07-23T09:57:42;0.50;;;0.50;;
23743;SDS011;12052;53.478;10.182;2022-07-23T10:00:10;1.13;;;0.70;;
23743;SDS011;12052;53.478;10.182;2022-07-23T10:02:37;2.17;;;0.70;;
23743;SDS011;12052;53.478;10.182;2022-07-23T10:05:04;0.47;;;0.47;;
23743;SDS011;12052;53.478;10.182;2022-07-23T10:07:33;2.65;;;0.80;;
23743;SDS011;12052;53.478;10.182;2022-07-23T10:10:02;0.97;;;0.63;;
23743;SDS011;12052;53.478;10.182;2022-07-23T10:12:29;0.73;;;0.50;;
23743;SDS011;12052;53.478;10.182;2022-07-23T10:15:11;1.33;;;0.55;;
23743;SDS011;12052;53.478;10.182;2022-07-23T10:17:36;1.30;;;0.50;;
23743;SDS011;12052;53.478;10.182;2022-07-23T10:20:03;1.25;;;0.60;;
23743;SDS011;12052;53.478;10.182;2022-07-23T10:22:33;0.80;;;0.50;;
23743;SDS011;12052;53.478;10.182;2022-07-23T10:25:12;1.48;;;0.50;;
23743;SDS011;12052;53.478;10.182;2022-07-23T10:30:36;5.00;;;0.80;;
23743;SDS011;12052;53.478;10.182;2022-07-23T10:36:41;2.33;;;0.82;;
23743;SDS011;12052;53.478;10.182;2022-07-23T10:39:08;2.60;;;1.58;;
23743;SDS011;12052;53.478;10.182;2022-07-23T10:42:15;4.85;;;0.88;;
23743;SDS011;12052;53.478;10.182;2022-07-23T10:44:46;1.08;;;0.75;;
23743;SDS011;12052;53.478;10.182;2022-07-23T10:47:21;2.22;;;0.80;;
23743;SDS011;12052;53.478;10.182;2022-07-23T10:50:19;1.08;;;0.80;;
23743;SDS011;12052;53.478;10.182;2022-07-23T10:57:59;2.15;;;0.57;;
23743;SDS011;12052;53.478;10.182;2022-07-23T11:00:28;1.92;;;0.70;;
23743;SDS011;12052;53.478;10.182;2022-07-23T11:02:59;2.28;;;0.45;;
23743;SDS011;12052;53.478;10.182;2022-07-23T11:05:47;1.35;;;0.90;;
23743;SDS011;12052;53.478;10.182;2022-07-23T11:08:13;0.73;;;0.60;;
23743;SDS011;12052;53.478;10.182;2022-07-23T11:26:46;0.90;;;0.60;;
23743;SDS011;12052;53.478;10.182;2022-07-23T11:34:31;1.63;;;0.52;;
23743;SDS011;12052;53.478;10.182;2022-07-23T11:37:03;0.95;;;0.50;;
23743;SDS011;12052;53.478;10.182;2022-07-23T11:39:31;1.58;;;0.60;;
23743;SDS011;12052;53.478;10.182;2022-07-23T11:41:57;1.45;;;1.02;;
23743;SDS011;12052;53.478;10.182;2022-07-23T11:44:28;1.50;;;0.63;;
23743;SDS011;12052;53.478;10.182;2022-07-23T11:47:05;3.05;;;1.05;;
23743;SDS011;12052;53.478;10.182;2022-07-23T11:49:35;1.10;;;1.00;;
23743;SDS011;12052;53.478;10.182;2022-07-23T11:52:05;1.85;;;0.52;;
23743;SDS011;12052;53.478;10.182;2022-07-23T11:54:33;2.08;;;0.80;;
23743;SDS011;12052;53.478;10.182;2022-07-23T11:57:01;4.95;;;1.00;;
23743;SDS011;12052;53.478;10.182;2022-07-23T11:59:29;1.23;;;0.70;;
23743;SDS011;12052;53.478;10.182;2022-07-23T12:02:03;0.80;;;0.73;;
23743;SDS011;12052;53.478;10.182;2022-07-23T12:04:46;0.55;;;0.40;;
23743;SDS011;12052;53.478;10.182;2022-07-23T12:07:33;0.60;;;0.50;;
23743;SDS011;12052;53.478;10.182;2022-07-23T12:12:53;2.10;;;1.23;;
23743;SDS011;12052;53.478;10.182;2022-07-23T12:15:28;0.70;;;0.50;;
23743;SDS011;12052;53.478;10.182;2022-07-23T12:20:27;0.95;;;0.50;;
23743;SDS011;12052;53.478;10.182;2022-07-23T12:25:23;0.40;;;0.40;;
23743;SDS011;12052;53.478;10.182;2022-07-23T12:28:06;2.17;;;0.73;;
23743;SDS011;12052;53.478;10.182;2022-07-23T12:30:37;1.17;;;0.50;;
23743;SDS011;12052;53.478;10.182;2022-07-23T12:33:15;1.52;;;0.73;;
23743;SDS011;12052;53.478;10.182;2022-07-23T12:35:48;1.77;;;1.00;;
23743;SDS011;12052;53.478;10.182;2022-07-23T12:38:16;3.00;;;0.52;;
23743;SDS011;12052;53.478;10.182;2022-07-23T12:43:30;2.97;;;0.82;;
23743;SDS011;12052;53.478;10.182;2022-07-23T12:46:02;1.70;;;0.77;;
23743;SDS011;12052;53.478;10.182;2022-07-23T12:48:28;1.40;;;0.90;;
23743;SDS011;12052;53.478;10.182;2022-07-23T12:51:02;4.03;;;1.30;;
23743;SDS011;12052;53.478;10.182;2022-07-23T12:53:39;1.92;;;0.68;;
23743;SDS011;12052;53.478;10.182;2022-07-23T12:58:48;4.10;;;0.90;;
23743;SDS011;12052;53.478;10.182;2022-07-23T13:06:27;3.53;;;0.85;;
23743;SDS011;12052;53.478;10.182;2022-07-23T13:08:55;3.47;;;1.10;;
23743;SDS011;12052;53.478;10.182;2022-07-23T13:11:21;3.35;;;1.05;;
23743;SDS011;12052;53.478;10.182;2022-07-23T13:13:47;4.18;;;0.90;;
23743;SDS011;12052;53.478;10.182;2022-07-23T13:16:12;1.70;;;1.08;;
23743;SDS011;12052;53.478;10.182;2022-07-23T13:18:38;3.58;;;1.25;;
23743;SDS011;12052;53.478;10.182;2022-07-23T13:21:03;2.22;;;1.48;;
23743;SDS011;12052;53.478;10.182;2022-07-23T13:23:29;6.63;;;1.45;;
23743;SDS011;12052;53.478;10.182;2022-07-23T13:25:55;2.90;;;1.10;;
23743;SDS011;12052;53.478;10.182;2022-07-23T13:28:21;0.98;;;0.88;;
23743;SDS011;12052;53.478;10.182;2022-07-23T13:30:47;3.05;;;0.93;;
23743;SDS011;12052;53.478;10.182;2022-07-23T13:33:15;1.25;;;0.73;;
23743;SDS011;12052;53.478;10.182;2022-07-23T13:35:44;3.15;;;0.80;;
23743;SDS011;12052;53.478;10.182;2022-07-23T13:38:11;3.08;;;0.75;;
23743;SDS011;12052;53.478;10.182;2022-07-23T13:40:37;3.38;;;0.77;;
23743;SDS011;12052;53.478;10.182;2022-07-23T13:43:08;3.28;;;0.90;;
23743;SDS011;12052;53.478;10.182;2022-07-23T13:45:35;2.47;;;0.95;;
23743;SDS011;12052;53.478;10.182;2022-07-23T13:48:00;2.22;;;0.80;;
23743;SDS011;12052;53.478;10.182;2022-07-23T13:50:27;1.63;;;0.73;;
23743;SDS011;12052;53.478;10.182;2022-07-23T13:52:52;1.38;;;0.70;;
23743;SDS011;12052;53.478;10.182;2022-07-23T13:55:18;1.25;;;0.75;;
23743;SDS011;12052;53.478;10.182;2022-07-23T13:57:44;1.85;;;0.60;;
23743;SDS011;12052;53.478;10.182;2022-07-23T14:00:10;2.88;;;0.70;;
23743;SDS011;12052;53.478;10.182;2022-07-23T14:02:37;0.93;;;0.60;;
23743;SDS011;12052;53.478;10.182;2022-07-23T14:05:04;5.57;;;1.00;;
23743;SDS011;12052;53.478;10.182;2022-07-23T14:07:30;3.00;;;0.98;;
23743;SDS011;12052;53.478;10.182;2022-07-23T14:09:56;2.35;;;0.80;;
23743;SDS011;12052;53.478;10.182;2022-07-23T14:12:22;3.08;;;0.90;;
23743;SDS011;12052;53.478;10.182;2022-07-23T14:14:47;2.22;;;0.80;;
23743;SDS011;12052;53.478;10.182;2022-07-23T14:17:13;2.65;;;0.85;;
23743;SDS011;12052;53.478;10.182;2022-07-23T14:19:39;2.70;;;0.98;;
23743;SDS011;12052;53.478;10.182;2022-07-23T14:22:04;1.70;;;0.70;;
23743;SDS011;12052;53.478;10.182;2022-07-23T14:24:30;2.83;;;0.70;;
23743;SDS011;12052;53.478;10.182;2022-07-23T14:26:56;1.10;;;0.60;;
23743;SDS011;12052;53.478;10.182;2022-07-23T14:29:21;2.03;;;0.70;;
23743;SDS011;12052;53.478;10.182;2022-07-23T14:31:47;0.80;;;0.50;;
23743;SDS011;12052;53.478;10.182;2022-07-23T14:34:13;1.13;;;0.60;;
23743;SDS011;12052;53.478;10.182;2022-07-23T14:36:39;2.72;;;0.90;;
23743;SDS011;12052;53.478;10.182;2022-07-23T14:39:04;4.15;;;0.90;;
23743;SDS011;12052;53.478;10.182;2022-07-23T14:41:30;3.85;;;0.90;;
23743;SDS011;12052;53.478;10.182;2022-07-23T14:43:56;1.83;;;0.70;;
23743;SDS011;12052;53.478;10.182;2022-07-23T14:46:22;4.68;;;0.90;;
23743;SDS011;12052;53.478;10.182;2022-07-23T14:48:47;2.80;;;0.80;;
23743;SDS011;12052;53.478;10.182;2022-07-23T14:51:13;1.75;;;0.90;;
23743;SDS011;12052;53.478;10.182;2022-07-23T14:53:38;6.57;;;0.90;;
23743;SDS011;12052;53.478;10.182;2022-07-23T14:56:04;1.27;;;0.57;;
23743;SDS011;12052;53.478;10.182;2022-07-23T14:58:30;1.55;;;0.60;;
23743;SDS011;12052;53.478;10.182;2022-07-23T15:00:55;1.35;;;0.60;;
23743;SDS011;12052;53.478;10.182;2022-07-23T15:03:21;3.38;;;0.65;;
23743;SDS011;12052;53.478;10.182;2022-07-23T15:05:47;2.50;;;0.57;;
23743;SDS011;12052;53.478;10.182;2022-07-23T15:08:12;1.60;;;0.60;;
23743;SDS011;12052;53.478;10.182;2022-07-23T15:10:38;0.82;;;0.65;;
23743;SDS011;12052;53.478;10.182;2022-07-23T15:13:03;0.98;;;0.70;;
23743;SDS011;12052;53.478;10.182;2022-07-23T15:15:30;0.50;;;0.50;;
23743;SDS011;12052;53.478;10.182;2022-07-23T15:17:56;0.82;;;0.52;;
23743;SDS011;12052;53.478;10.182;2022-07-23T15:20:22;1.27;;;0.80;;
23743;SDS011;12052;53.478;10.182;2022-07-23T15:22:47;3.97;;;0.93;;
23743;SDS011;12052;53.478;10.182;2022-07-23T15:25:13;1.30;;;0.70;;
23743;SDS011;12052;53.478;10.182;2022-07-23T15:27:39;1.83;;;0.82;;
23743;SDS011;12052;53.478;10.182;2022-07-23T15:30:05;0.90;;;0.70;;